Terminal Aerodrome Forecast
Issued by NWS Cleveland, OH

Home | Current Version | Previous Version | Graphics & Text | Print | Product List | Glossary Off
Versions: 1 2 3 4 5 6 7 8 9 10 11 12 13 14 15 16 17 18 19 20 21 22 23

755
FTUS41 KCLE 220533
TAFTOL
TAF
KTOL 220533Z 2206/2306 21003KT 4SM BR SCT040
     FM221000 21003KT 4SM BR OVC012
      TEMPO 2210/2214 2SM BR OVC008
     FM221800 22008KT P6SM OVC025
     FM222100 22008KT P6SM BKN045
     FM230400 20008KT 5SM BR OVC025=

USA.gov is the U.S. government's official web portal to all federal, state and local government web resources and services.